Lostcreek, Wisconsin
Current Conditions -  °F | °C
As of 8:31 PM on Friday 28 Nov 2014 (Local Time) from KRGK Reporting Station
Scattered Clouds Scattered Clouds  
Wind Chill: 18°   Ceiling: Unl
Heat Index: 25°   Visibility: 10mi
Dew Point: 19°   Wind: 6mph
Humidity: 80%   Direction: 120°ESE
Pressure: 29.82"   Gusts: NA
Location:  44.7206°N, 92.4859°W
Report Text: KRGK 290231Z AUTO 12005KT 10SM SCT120 M04/M07 A2982 RMK AO2
Loading
Personal Weather Stations






























Interactive Weather Map New forecast layout! Learn more

10-Day Weather Forecast

Advertisements
Track Severe Weather on mobile